| time (UTC) | temp F | wind direction | speed knots | gust knots | rain 1hr in | rain 24hr in | rain mn in | humidity % | barometer mb |
| 20260502162531 | 56 | 12 | 2.6 | 10.4 | 0.00 | 0.00 | 0.00 | 42 | 1023.2 |
| 20260502162034 | 56 | 336 | 4.3 | 10.4 | 0.00 | 0.00 | 0.00 | 45 | 1023.3 |
| 20260502161556 | 56 | 360 | 4.3 | 10.4 | 0.00 | 0.00 | 0.00 | 42 | 1023.2 |
| 20260502161038 | 56 | 360 | 4.3 | 10.4 | 0.00 | 0.00 | 0.00 | 46 | 1023.2 |
| 20260502160532 | 56 | 5 | 4.3 | 9.6 | 0.00 | 0.00 | 0.00 | 47 | 1023.1 |
| 20260502152029 | 54 | 342 | 2.6 | 7.8 | 0.00 | 0.00 | 0.00 | 47 | 1023.2 |
| 20260502151550 | 54 | 326 | 0.9 | 7.0 | 0.00 | 0.00 | 0.00 | 53 | 1023.2 |
| 20260502151028 | 54 | 325 | 2.6 | 7.0 | 0.00 | 0.00 | 0.00 | 49 | 1023.2 |
| 20260502150529 | 54 | 24 | 3.5 | 7.0 | 0.00 | 0.00 | 0.00 | 54 | 1023.1 |
| 20260502130528 | 40 | 314 | 1.7 | 4.3 | 0.00 | 0.00 | 0.00 | 77 | 1022.6 |
| 20260502123533 | 37 | 0 | 0.0 | 3.5 | 0.00 | 0.00 | 0.00 | 82 | 1022.5 |
| 20260502123111 | 37 | 318 | 0.9 | 3.5 | 0.00 | 0.00 | 0.00 | 82 | 1022.3 |
| 20260502122530 | 37 | 360 | 0.9 | 3.5 | 0.00 | 0.00 | 0.00 | 82 | 1022.2 |
| 20260502122034 | 37 | 0 | 0.0 | 0.0 | 0.00 | 0.00 | 0.00 | 81 | 1022.1 |
| 20260502121544 | 37 | 0 | 0.0 | 0.0 | 0.00 | 0.00 | 0.00 | 81 | 1022.1 |
| 20260502121031 | 36 | 0 | 0.0 | 0.0 | 0.00 | 0.00 | 0.00 | 82 | 1022.0 |
| 20260502120532 | 36 | 0 | 0.0 | 0.0 | 0.00 | 0.00 | 0.00 | 82 | 1021.9 |
| 20260502115530 | 35 | 0 | 0.0 | 0.9 | 0.00 | 0.00 | 0.00 | 83 | 1021.8 |
| 20260502115030 | 35 | 0 | 0.0 | 0.9 | 0.00 | 0.00 | 0.00 | 83 | 1021.8 |
| 20260502114545 | 35 | 0 | 0.0 | 0.9 | 0.00 | 0.00 | 0.00 | 83 | 1021.6 |
| 20260502114030 | 35 | 0 | 0.0 | 0.9 | 0.00 | 0.00 | 0.00 | 82 | 1021.5 |
| 20260502113530 | 35 | 0 | 0.0 | 0.0 | 0.00 | 0.00 | 0.00 | 81 | 1021.5 |
| 20260502113046 | 35 | 0 | 0.0 | 0.0 | 0.00 | 0.00 | 0.00 | 81 | 1021.5 |
| 20260502112529 | 35 | 0 | 0.0 | 0.0 | 0.00 | 0.00 | 0.00 | 81 | 1021.4 |
| 20260502112029 | 35 | 0 | 0.0 | 0.0 | 0.00 | 0.00 | 0.00 | 80 | 1021.5 |
| 20260502111545 | 36 | 0 | 0.0 | 0.9 | 0.00 | 0.00 | 0.00 | 79 | 1021.4 |
| 20260502111030 | 36 | 0 | 0.0 | 1.7 | 0.00 | 0.00 | 0.00 | 78 | 1021.3 |
| 20260502110530 | 37 | 0 | 0.0 | 2.6 | 0.00 | 0.00 | 0.00 | 78 | 1021.3 |
| 20260502110048 | 37 | 313 | 0.0 | 2.6 | 0.00 | 0.00 | 0.00 | 78 | 1021.3 |
| 20260502105531 | 37 | 313 | 0.0 | 2.6 | 0.00 | 0.00 | 0.00 | 78 | 1021.3 |
| 20260502105032 | 37 | 313 | 0.9 | 2.6 | 0.00 | 0.00 | 0.00 | 78 | 1021.2 |
| 20260502104541 | 37 | 313 | 0.0 | 2.6 | 0.00 | 0.00 | 0.00 | 78 | 1021.1 |
| 20260502104030 | 37 | 0 | 0.0 | 2.6 | 0.00 | 0.00 | 0.00 | 78 | 1021.1 |
| 20260502103530 | 37 | 0 | 0.0 | 2.6 | 0.00 | 0.00 | 0.00 | 78 | 1021.0 |
| 20260502103039 | 37 | 0 | 0.0 | 1.7 | 0.00 | 0.00 | 0.00 | 78 | 1021.0 |
| 20260502102530 | 37 | 0 | 0.0 | 2.6 | 0.00 | 0.00 | 0.00 | 79 | 1021.0 |
| 20260502102037 | 37 | 360 | 0.0 | 2.6 | 0.00 | 0.00 | 0.00 | 79 | 1020.9 |
| 20260502101549 | 37 | 0 | 0.9 | 2.6 | 0.00 | 0.00 | 0.00 | 79 | 1020.9 |
| 20260502101030 | 37 | 360 | 0.9 | 2.6 | 0.00 | 0.00 | 0.00 | 79 | 1020.8 |
| 20260502100530 | 37 | 360 | 0.9 | 2.6 | 0.00 | 0.00 | 0.00 | 78 | 1020.9 |
| 20260502091028 | 40 | 0 | 0.9 | 3.5 | 0.00 | 0.00 | 0.00 | 72 | 1020.8 |
| 20260502090528 | 40 | 360 | 0.9 | 3.5 | 0.00 | 0.00 | 0.00 | 72 | 1020.8 |
| 20260502071029 | 44 | 360 | 2.6 | 4.3 | 0.00 | 0.00 | 0.00 | 60 | 1020.5 |
| 20260502070532 | 44 | 360 | 1.7 | 5.2 | 0.00 | 0.00 | 0.00 | 61 | 1020.6 |
| 20260502070044 | 44 | 360 | 1.7 | 5.2 | 0.00 | 0.00 | 0.00 | 61 | 1020.6 |
| 20260502065528 | 44 | 360 | 1.7 | 3.5 | 0.00 | 0.00 | 0.00 | 62 | 1020.6 |
| 20260502065030 | 44 | 360 | 0.9 | 3.5 | 0.00 | 0.00 | 0.00 | 63 | 1020.7 |
| 20260502064538 | 44 | 360 | 1.7 | 3.5 | 0.00 | 0.00 | 0.00 | 64 | 1020.7 |
| 20260502064031 | 43 | 360 | 0.9 | 3.5 | 0.00 | 0.00 | 0.00 | 64 | 1020.6 |
| 20260502063532 | 43 | 360 | 1.7 | 3.5 | 0.00 | 0.00 | 0.00 | 66 | 1020.7 |
| 20260502063053 | 43 | 360 | 1.7 | 3.5 | 0.00 | 0.00 | 0.00 | 67 | 1020.8 |
| 20260502062529 | 43 | 360 | 1.7 | 3.5 | 0.00 | 0.00 | 0.00 | 67 | 1020.8 |
| 20260502062029 | 43 | 360 | 0.9 | 2.6 | 0.00 | 0.00 | 0.00 | 68 | 1020.8 |
| 20260502061539 | 43 | 360 | 1.7 | 2.6 | 0.00 | 0.00 | 0.00 | 67 | 1020.8 |
| 20260502061028 | 44 | 360 | 0.9 | 2.6 | 0.00 | 0.00 | 0.00 | 65 | 1020.8 |
| 20260502060530 | 44 | 360 | 0.9 | 2.6 | 0.00 | 0.00 | 0.00 | 64 | 1020.8 |
| 20260502060040 | 44 | 360 | 0.9 | 3.5 | 0.00 | 0.00 | 0.00 | 63 | 1020.6 |
| 20260502055529 | 44 | 360 | 1.7 | 3.5 | 0.00 | 0.00 | 0.00 | 63 | 1020.6 |
| 20260502055032 | 45 | 360 | 0.9 | 3.5 | 0.00 | 0.00 | 0.00 | 63 | 1020.6 |
| 20260502054542 | 45 | 360 | 1.7 | 3.5 | 0.00 | 0.00 | 0.00 | 62 | 1020.6 |
| 20260502054030 | 45 | 360 | 1.7 | 3.5 | 0.00 | 0.00 | 0.00 | 61 | 1020.7 |
| 20260502053530 | 45 | 360 | 1.7 | 2.6 | 0.00 | 0.00 | 0.00 | 60 | 1020.6 |
| 20260502053043 | 46 | 360 | 1.7 | 2.6 | 0.00 | 0.00 | 0.00 | 60 | 1020.7 |
| 20260502052529 | 46 | 360 | 1.7 | 2.6 | 0.00 | 0.00 | 0.00 | 59 | 1020.6 |
| 20260502052029 | 46 | 360 | 1.7 | 2.6 | 0.00 | 0.00 | 0.00 | 60 | 1020.6 |
| 20260502051544 | 46 | 360 | 1.7 | 2.6 | 0.00 | 0.00 | 0.00 | 59 | 1020.6 |
| 20260502051029 | 46 | 360 | 1.7 | 2.6 | 0.00 | 0.00 | 0.00 | 59 | 1020.6 |
| 20260502050529 | 46 | 360 | 1.7 | 3.5 | 0.00 | 0.00 | 0.00 | 59 | 1020.6 |
| 20260502050039 | 46 | 360 | 1.7 | 3.5 | 0.00 | 0.00 | 0.00 | 59 | 1020.6 |
| 20260502045529 | 46 | 360 | 1.7 | 3.5 | 0.00 | 0.00 | 0.00 | 58 | 1020.6 |
| 20260502045031 | 47 | 360 | 1.7 | 3.5 | 0.00 | 0.00 | 0.00 | 58 | 1020.7 |
| 20260502044544 | 47 | 360 | 1.7 | 3.5 | 0.00 | 0.00 | 0.00 | 58 | 1020.7 |
| 20260502044033 | 47 | 360 | 1.7 | 2.6 | 0.00 | 0.00 | 0.00 | 57 | 1020.7 |
| 20260502043528 | 47 | 360 | 1.7 | 2.6 | 0.00 | 0.00 | 0.00 | 57 | 1020.7 |
| 20260502043046 | 47 | 360 | 1.7 | 3.5 | 0.00 | 0.00 | 0.00 | 57 | 1020.6 |
| 20260502042528 | 47 | 360 | 1.7 | 3.5 | 0.00 | 0.00 | 0.00 | 56 | 1020.7 |
| 20260502042032 | 48 | 360 | 1.7 | 3.5 | 0.00 | 0.00 | 0.00 | 56 | 1020.6 |
| 20260502041547 | 48 | 360 | 1.7 | 3.5 | 0.00 | 0.00 | 0.00 | 56 | 1020.5 |
| 20260502041028 | 48 | 360 | 1.7 | 4.3 | 0.00 | 0.00 | 0.00 | 56 | 1020.5 |
| 20260502040529 | 48 | 360 | 1.7 | 4.3 | 0.00 | 0.00 | 0.00 | 56 | 1020.5 |
| 20260502040040 | 48 | 360 | 1.7 | 5.2 | 0.00 | 0.00 | 0.00 | 56 | 1020.5 |
| 20260502035529 | 48 | 360 | 1.7 | 5.2 | 0.00 | 0.00 | 0.00 | 56 | 1020.5 |
| 20260502035029 | 49 | 360 | 2.6 | 4.3 | 0.00 | 0.00 | 0.00 | 55 | 1020.4 |
| 20260502034540 | 49 | 360 | 2.6 | 5.2 | 0.00 | 0.00 | 0.00 | 55 | 1020.3 |
| 20260502034029 | 49 | 360 | 2.6 | 5.2 | 0.00 | 0.00 | 0.00 | 55 | 1020.3 |
| 20260502033535 | 49 | 360 | 2.6 | 5.2 | 0.00 | 0.00 | 0.00 | 54 | 1020.3 |
| 20260502033045 | 50 | 360 | 1.7 | 4.3 | 0.00 | 0.00 | 0.00 | 53 | 1020.1 |
| 20260502032529 | 50 | 360 | 1.7 | 3.5 | 0.00 | 0.00 | 0.00 | 53 | 1020.1 |
| 20260502032029 | 50 | 360 | 1.7 | 3.5 | 0.00 | 0.00 | 0.00 | 53 | 1019.9 |
| 20260502031551 | 50 | 360 | 1.7 | 3.5 | 0.00 | 0.00 | 0.00 | 52 | 1019.9 |
| 20260502031029 | 50 | 360 | 1.7 | 4.3 | 0.00 | 0.00 | 0.00 | 52 | 1019.9 |
| 20260502030535 | 50 | 360 | 1.7 | 5.2 | 0.00 | 0.00 | 0.00 | 52 | 1019.9 |
| 20260502030042 | 51 | 360 | 2.6 | 5.2 | 0.00 | 0.00 | 0.00 | 52 | 1019.9 |
| 20260502025529 | 51 | 360 | 2.6 | 5.2 | 0.00 | 0.00 | 0.00 | 51 | 1019.8 |
| 20260502025031 | 51 | 360 | 2.6 | 4.3 | 0.00 | 0.00 | 0.00 | 51 | 1019.7 |
| 20260502024600 | 51 | 360 | 2.6 | 4.3 | 0.00 | 0.00 | 0.00 | 51 | 1019.6 |
| 20260502024028 | 52 | 360 | 2.6 | 5.2 | 0.00 | 0.00 | 0.00 | 51 | 1019.6 |
| 20260502023529 | 52 | 360 | 2.6 | 8.7 | 0.00 | 0.00 | 0.00 | 50 | 1019.5 |
| 20260502023045 | 52 | 360 | 4.3 | 8.7 | 0.00 | 0.00 | 0.00 | 49 | 1019.3 |
| 20260502022531 | 53 | 360 | 3.5 | 7.0 | 0.00 | 0.00 | 0.00 | 49 | 1019.2 |
| 20260502022032 | 53 | 360 | 3.5 | 7.8 | 0.00 | 0.00 | 0.00 | 50 | 1019.1 |
| 20260502021540 | 53 | 360 | 3.5 | 7.8 | 0.00 | 0.00 | 0.00 | 50 | 1019.0 |
| 20260502021029 | 54 | 360 | 4.3 | 7.8 | 0.00 | 0.00 | 0.00 | 49 | 1018.8 |
| 20260502020529 | 54 | 360 | 4.3 | 7.8 | 0.00 | 0.00 | 0.00 | 49 | 1018.8 |
| 20260502020043 | 54 | 9 | 5.2 | 7.8 | 0.00 | 0.00 | 0.00 | 48 | 1018.8 |
| 20260502015530 | 54 | 360 | 4.3 | 8.7 | 0.00 | 0.00 | 0.00 | 49 | 1018.7 |
| 20260502015028 | 55 | 360 | 5.2 | 8.7 | 0.00 | 0.00 | 0.00 | 50 | 1018.6 |
| 20260502014537 | 55 | 9 | 4.3 | 8.7 | 0.00 | 0.00 | 0.00 | 50 | 1018.5 |
| 20260502014028 | 55 | 360 | 3.5 | 7.0 | 0.00 | 0.00 | 0.00 | 50 | 1018.4 |
| 20260502013529 | 55 | 13 | 2.6 | 7.0 | 0.00 | 0.00 | 0.00 | 50 | 1018.3 |
| 20260502013042 | 56 | 349 | 3.5 | 8.7 | 0.00 | 0.00 | 0.00 | 49 | 1018.3 |
| 20260502012528 | 56 | 13 | 3.5 | 8.7 | 0.00 | 0.00 | 0.00 | 49 | 1018.3 |
| 20260502012028 | 56 | 355 | 4.3 | 8.7 | 0.00 | 0.00 | 0.00 | 48 | 1018.2 |
| 20260502011542 | 57 | 360 | 3.5 | 9.6 | 0.00 | 0.00 | 0.00 | 48 | 1018.1 |
| 20260502011028 | 57 | 360 | 3.5 | 9.6 | 0.00 | 0.00 | 0.00 | 48 | 1018.0 |
| 20260502010528 | 57 | 360 | 4.3 | 8.7 | 0.00 | 0.00 | 0.00 | 48 | 1018.0 |
| 20260502010050 | 58 | 355 | 4.3 | 9.6 | 0.00 | 0.00 | 0.00 | 47 | 1018.0 |
| 20260502005529 | 58 | 355 | 3.5 | 9.6 | 0.00 | 0.00 | 0.00 | 46 | 1017.9 |
| 20260502005029 | 58 | 340 | 5.2 | 9.6 | 0.00 | 0.00 | 0.00 | 45 | 1017.8 |
| 20260502004553 | 59 | 339 | 4.3 | 8.7 | 0.00 | 0.00 | 0.00 | 44 | 1017.8 |
| 20260502004029 | 59 | 349 | 3.5 | 9.6 | 0.00 | 0.00 | 0.00 | 45 | 1017.7 |
| 20260502003528 | 59 | 343 | 6.1 | 9.6 | 0.00 | 0.00 | 0.00 | 45 | 1017.7 |
| 20260502003038 | 60 | 5 | 3.5 | 10.4 | 0.00 | 0.00 | 0.00 | 45 | 1017.6 |
| 20260502002528 | 60 | 360 | 5.2 | 13.0 | 0.00 | 0.00 | 0.00 | 44 | 1017.6 |
| 20260502002029 | 60 | 331 | 6.1 | 13.0 | 0.00 | 0.00 | 0.00 | 44 | 1017.5 |
| 20260502001537 | 60 | 5 | 8.7 | 13.0 | 0.00 | 0.00 | 0.00 | 43 | 1017.6 |
| 20260502001030 | 61 | 16 | 5.2 | 11.3 | 0.00 | 0.00 | 0.00 | 43 | 1017.5 |
| 20260502000529 | 61 | 9 | 7.0 | 11.3 | 0.00 | 0.00 | 0.00 | 43 | 1017.5 |
| 20260502000044 | 61 | 32 | 7.0 | 11.3 | 0.00 | 0.00 | 0.00 | 43 | 1017.5 |
| 20260501235528 | 61 | 5 | 7.0 | 11.3 | 0.00 | 0.00 | 0.00 | 43 | 1017.5 |
| 20260501235029 | 62 | 355 | 6.1 | 11.3 | 0.00 | 0.00 | 0.00 | 43 | 1017.4 |
| 20260501234541 | 61 | 355 | 5.2 | 12.2 | 0.00 | 0.00 | 0.00 | 44 | 1017.4 |
| 20260501234029 | 62 | 5 | 7.8 | 12.2 | 0.00 | 0.00 | 0.00 | 41 | 1017.4 |
| 20260501233529 | 62 | 5 | 6.1 | 12.2 | 0.00 | 0.00 | 0.00 | 42 | 1017.4 |
| 20260501233044 | 62 | 327 | 6.1 | 12.2 | 0.00 | 0.00 | 0.00 | 42 | 1017.3 |
| 20260501232529 | 62 | 355 | 5.2 | 15.6 | 0.00 | 0.00 | 0.00 | 40 | 1017.3 |
| 20260501232028 | 62 | 329 | 6.1 | 15.6 | 0.00 | 0.00 | 0.00 | 39 | 1017.3 |
| 20260501231544 | 63 | 344 | 6.1 | 15.6 | 0.00 | 0.00 | 0.00 | 38 | 1017.3 |
| 20260501231028 | 63 | 323 | 7.8 | 13.9 | 0.00 | 0.00 | 0.00 | 38 | 1017.2 |
| 20260501230529 | 63 | 360 | 6.1 | 14.8 | 0.00 | 0.00 | 0.00 | 41 | 1017.2 |
| 20260501230038 | 63 | 5 | 7.8 | 14.8 | 0.00 | 0.00 | 0.00 | 41 | 1017.2 |
| 20260501225529 | 63 | 24 | 7.8 | 13.9 | 0.00 | 0.00 | 0.00 | 40 | 1017.2 |
| 20260501225028 | 62 | 355 | 7.8 | 13.0 | 0.00 | 0.00 | 0.00 | 40 | 1017.3 |
| 20260501224548 | 63 | 355 | 7.8 | 11.3 | 0.00 | 0.00 | 0.00 | 40 | 1017.2 |
| 20260501224029 | 63 | 349 | 7.0 | 13.9 | 0.00 | 0.00 | 0.00 | 40 | 1017.1 |
| 20260501223532 | 62 | 27 | 6.1 | 13.9 | 0.00 | 0.00 | 0.00 | 41 | 1017.3 |
| 20260501223042 | 62 | 316 | 5.2 | 13.0 | 0.00 | 0.00 | 0.00 | 42 | 1017.1 |
| 20260501222529 | 62 | 336 | 5.2 | 13.0 | 0.00 | 0.00 | 0.00 | 41 | 1017.1 |
| 20260501222029 | 62 | 334 | 3.5 | 10.4 | 0.00 | 0.00 | 0.00 | 42 | 1017.2 |
| 20260501221539 | 62 | 338 | 6.1 | 13.9 | 0.00 | 0.00 | 0.00 | 39 | 1017.1 |
| 20260501221029 | 63 | 329 | 7.0 | 13.9 | 0.00 | 0.00 | 0.00 | 40 | 1017.2 |
| 20260501220528 | 62 | 300 | 6.1 | 13.9 | 0.00 | 0.00 | 0.00 | 39 | 1017.2 |
| 20260501220052 | 63 | 360 | 7.8 | 14.8 | 0.00 | 0.00 | 0.00 | 38 | 1017.2 |
| 20260501215529 | 65 | 24 | 7.0 | 16.5 | 0.00 | 0.00 | 0.00 | 39 | 1017.3 |
| 20260501215029 | 64 | 360 | 8.7 | 16.5 | 0.00 | 0.00 | 0.00 | 38 | 1017.3 |
| 20260501214545 | 64 | 355 | 7.8 | 15.6 | 0.00 | 0.00 | 0.00 | 38 | 1017.1 |
| 20260501214028 | 64 | 355 | 10.4 | 15.6 | 0.00 | 0.00 | 0.00 | 36 | 1017.3 |
| 20260501213530 | 64 | 340 | 7.8 | 13.0 | 0.00 | 0.00 | 0.00 | 37 | 1017.4 |
| 20260501213050 | 64 | 360 | 7.8 | 13.0 | 0.00 | 0.00 | 0.00 | 38 | 1017.6 |
| 20260501212529 | 64 | 317 | 6.1 | 12.2 | 0.00 | 0.00 | 0.00 | 42 | 1017.5 |
| 20260501212029 | 64 | 323 | 3.5 | 13.0 | 0.00 | 0.00 | 0.00 | 41 | 1017.6 |
| 20260501211548 | 63 | 5 | 7.8 | 13.0 | 0.00 | 0.00 | 0.00 | 40 | 1017.8 |
| 20260501211028 | 63 | 342 | 6.1 | 13.0 | 0.00 | 0.00 | 0.00 | 42 | 1017.8 |
| 20260501210528 | 62 | 342 | 2.6 | 7.0 | 0.00 | 0.00 | 0.00 | 40 | 1017.9 |
| 20260501210046 | 63 | 315 | 2.6 | 7.0 | 0.00 | 0.00 | 0.00 | 39 | 1017.9 |
| 20260501205534 | 63 | 274 | 3.5 | 13.0 | 0.00 | 0.00 | 0.00 | 43 | 1018.0 |
| 20260501205029 | 64 | 254 | 5.2 | 13.0 | 0.00 | 0.00 | 0.00 | 40 | 1018.0 |
| 20260501204542 | 64 | 275 | 6.1 | 15.6 | 0.00 | 0.00 | 0.00 | 45 | 1018.1 |
| 20260501204029 | 63 | 360 | 3.5 | 15.6 | 0.00 | 0.00 | 0.00 | 42 | 1018.3 |
| 20260501203529 | 63 | 344 | 8.7 | 15.6 | 0.00 | 0.00 | 0.00 | 45 | 1018.3 |
| 20260501203038 | 63 | 279 | 6.1 | 13.9 | 0.00 | 0.00 | 0.00 | 46 | 1018.3 |
| 20260501202533 | 62 | 272 | 7.8 | 14.8 | 0.00 | 0.00 | 0.00 | 45 | 1018.3 |
| 20260501202028 | 63 | 360 | 6.1 | 14.8 | 0.00 | 0.00 | 0.00 | 47 | 1018.4 |
| 20260501201546 | 62 | 261 | 6.1 | 10.4 | 0.00 | 0.00 | 0.00 | 48 | 1018.4 |
| 20260501201029 | 61 | 272 | 5.2 | 14.8 | 0.00 | 0.00 | 0.00 | 43 | 1018.5 |
| 20260501200529 | 62 | 310 | 4.3 | 14.8 | 0.00 | 0.00 | 0.00 | 41 | 1018.6 |
| 20260501200044 | 62 | 5 | 6.1 | 14.8 | 0.00 | 0.00 | 0.00 | 45 | 1018.6 |
| 20260501195529 | 62 | 0 | 3.5 | 14.8 | 0.00 | 0.00 | 0.00 | 44 | 1018.7 |
| 20260501195029 | 62 | 284 | 7.0 | 14.8 | 0.00 | 0.00 | 0.00 | 46 | 1018.7 |
| 20260501194541 | 63 | 284 | 7.0 | 12.2 | 0.00 | 0.00 | 0.00 | 43 | 1018.6 |
| 20260501194028 | 63 | 348 | 7.0 | 12.2 | 0.00 | 0.00 | 0.00 | 45 | 1018.7 |
| 20260501193528 | 63 | 360 | 6.1 | 12.2 | 0.00 | 0.00 | 0.00 | 44 | 1018.8 |
| 20260501193039 | 62 | 342 | 3.5 | 12.2 | 0.00 | 0.00 | 0.00 | 46 | 1018.7 |
| 20260501192529 | 61 | 273 | 7.0 | 13.0 | 0.00 | 0.00 | 0.00 | 47 | 1019.0 |
| 20260501192029 | 62 | 260 | 6.1 | 15.6 | 0.00 | 0.00 | 0.00 | 45 | 1018.9 |
| 20260501191537 | 62 | 341 | 8.7 | 15.6 | 0.00 | 0.00 | 0.00 | 41 | 1018.9 |
| 20260501191030 | 62 | 292 | 9.6 | 14.8 | 0.00 | 0.00 | 0.00 | 41 | 1018.8 |
| 20260501190535 | 62 | 350 | 6.1 | 16.5 | 0.00 | 0.00 | 0.00 | 43 | 1018.9 |
| 20260501190036 | 62 | 277 | 8.7 | 16.5 | 0.00 | 0.00 | 0.00 | 42 | 1018.9 |
| 20260501185529 | 63 | 340 | 11.3 | 16.5 | 0.00 | 0.00 | 0.00 | 41 | 1018.9 |
| 20260501185029 | 63 | 279 | 5.2 | 12.2 | 0.00 | 0.00 | 0.00 | 44 | 1018.8 |
| 20260501184558 | 63 | 271 | 5.2 | 15.6 | 0.00 | 0.00 | 0.00 | 47 | 1018.8 |
| 20260501184029 | 63 | 331 | 7.8 | 15.6 | 0.00 | 0.00 | 0.00 | 41 | 1018.9 |
| 20260501183529 | 63 | 284 | 7.8 | 15.6 | 0.00 | 0.00 | 0.00 | 41 | 1018.7 |
| 20260501183043 | 63 | 240 | 5.2 | 13.9 | 0.00 | 0.00 | 0.00 | 42 | 1018.8 |
| 20260501182530 | 63 | 325 | 3.5 | 13.9 | 0.00 | 0.00 | 0.00 | 42 | 1018.8 |
| 20260501182032 | 63 | 355 | 6.1 | 13.9 | 0.00 | 0.00 | 0.00 | 40 | 1018.9 |
| 20260501181543 | 63 | 333 | 7.8 | 13.9 | 0.00 | 0.00 | 0.00 | 44 | 1018.9 |
| 20260501181028 | 62 | 315 | 7.8 | 13.9 | 0.00 | 0.00 | 0.00 | 44 | 1018.9 |
| 20260501180528 | 62 | 346 | 8.7 | 14.8 | 0.00 | 0.00 | 0.00 | 48 | 1018.8 |
| 20260501180052 | 62 | 346 | 8.7 | 16.5 | 0.00 | 0.00 | 0.00 | 41 | 1018.8 |
| 20260501175530 | 62 | 355 | 9.6 | 16.5 | 0.00 | 0.00 | 0.00 | 40 | 1018.9 |
| 20260501175029 | 62 | 315 | 9.6 | 14.8 | 0.00 | 0.00 | 0.00 | 40 | 1019.0 |
| 20260501174548 | 63 | 5 | 7.8 | 13.9 | 0.00 | 0.00 | 0.00 | 42 | 1019.1 |
| 20260501174030 | 63 | 360 | 3.5 | 16.5 | 0.00 | 0.00 | 0.00 | 41 | 1019.2 |
| 20260501173529 | 62 | 274 | 5.2 | 16.5 | 0.00 | 0.00 | 0.00 | 44 | 1019.2 |
| 20260501173041 | 62 | 325 | 7.8 | 15.6 | 0.00 | 0.00 | 0.00 | 40 | 1019.3 |
| 20260501172529 | 62 | 355 | 3.5 | 15.6 | 0.00 | 0.00 | 0.00 | 47 | 1019.5 |
| 20260501172029 | 62 | 326 | 5.2 | 13.0 | 0.00 | 0.00 | 0.00 | 45 | 1019.4 |
| 20260501171540 | 62 | 275 | 6.1 | 13.0 | 0.00 | 0.00 | 0.00 | 45 | 1019.6 |
| 20260501171030 | 61 | 290 | 5.2 | 10.4 | 0.00 | 0.00 | 0.00 | 49 | 1019.6 |
| 20260501170532 | 61 | 269 | 4.3 | 12.2 | 0.00 | 0.00 | 0.00 | 48 | 1019.6 |
| 20260501170048 | 61 | 267 | 5.2 | 13.9 | 0.00 | 0.00 | 0.00 | 47 | 1019.8 |
| 20260501165530 | 61 | 355 | 7.8 | 13.9 | 0.00 | 0.00 | 0.00 | 43 | 1019.6 |
| 20260501165029 | 61 | 302 | 6.1 | 13.9 | 0.00 | 0.00 | 0.00 | 48 | 1019.6 |
| 20260501164544 | 60 | 299 | 4.3 | 10.4 | 0.00 | 0.00 | 0.00 | 46 | 1019.6 |
| 20260501164029 | 60 | 315 | 5.2 | 9.6 | 0.00 | 0.00 | 0.00 | 43 | 1019.8 |
| 20260501163532 | 60 | 279 | 4.3 | 9.6 | 0.00 | 0.00 | 0.00 | 48 | 1019.8 |
| 20260501163051 | 59 | 296 | 4.3 | 10.4 | 0.00 | 0.00 | 0.00 | 44 | 1019.9 |